Impacts METAR Board
IDs:

KFLL - Ft Lauderdale-Hollyw, FL, US

Updated at: 1900 UTC 22 Sep 2018
Potential Impact None Slight Moderate High
Time 22/07Z 22/08Z 22/09Z 22/10Z 22/11Z 22/12Z 22/13Z 22/14Z 22/15Z 22/16Z 22/17Z 22/18Z 22/19Z
Temp82 82 81 80 79 80 82 86 87 89 88 88 86
Dewpt75 75 75 77 78 78 78 75 76 77 76 76 77
Altim29.98 29.97 29.97 29.98 29.98 29.99 29.99 29.99 30.00 30.01 30.00 29.98 29.96
VIS10 10 10 10 10 10 10 10 10 10 10 10 10
CIG-- -- -- -- -- -- -- -- -- -- -- 180 180
CoverFEWFEWFEWFEWSCTSCTSCTSCTFEWSCTSCTBKNBKN
FltCatVFRVFRVFRVFRVFRVFRVFRVFRVFRVFRVFRVFRVFR
WX--------------------------
WDir100130032035035010709060120100100
WSpd6 6 0 3 4 4 4 7 9 6 11 12 7
WGst-- -- -- -- -- -- -- -- -- -- -- -- 16
Raw hourly METARs
KFLL 220653Z COR 10006KT 10SM FEW024 FEW110 28/24 A2998 RMK AO2 SLP152 T02780239
KFLL 220753Z 13006KT 10SM FEW024 FEW100 FEW220 28/24 A2997 RMK AO2 SLP149 CB DSNT S T02780239
KFLL 220853Z 00000KT 10SM FEW025 FEW220 27/24 A2997 RMK AO2 SLP148 T02720239 56009
KFLL 220953Z 32003KT 10SM FEW026 27/25 A2998 RMK AO2 SLP150 T02670250
KFLL 221053Z 35004KT 10SM FEW026 FEW065 SCT250 26/26 A2998 RMK AO2 SLP153 TCU DSNT SE T02610256
KFLL 221153Z 35004KT 10SM FEW028 SCT080 SCT250 27/26 A2999 RMK AO2 SLP156 T02670256 10278 20261 53007
KFLL 221253Z 01004KT 10SM SCT032 28/26 A2999 RMK AO2 SLP156 T02780256
KFLL 221353Z 07007KT 10SM FEW031 SCT250 30/24 A2999 RMK AO2 SLP156 T03000239
KFLL 221453Z 09009KT 10SM FEW031 FEW250 31/24 A3000 RMK AO2 SLP159 T03060244 53003
KFLL 221553Z 06006KT 10SM FEW032TCU SCT250 32/25 A3001 RMK AO2 SLP161 TCU SE T03170250
KFLL 221653Z 12011KT 10SM FEW034TCU SCT250 31/24 A3000 RMK AO2 SLP158 TCU S T03110244
KFLL 221753Z 10012KT 10SM SCT035 BKN180 BKN250 31/24 A2998 RMK AO2 LTG DSNT NW SLP151 TCU DSNT E AND W-NW T03110244 10317 20267 58008
KFLL 221853Z 10007G16KT 10SM SCT028 BKN180 BKN250 30/25 A2996 RMK AO2 LTG DSNT W SLP144 CB DSNT E TCU DSNT SE T03000250



Page loaded:  19:04 UTC  |   12:04 PM Pacific  |   01:04 PM Mountain  |   02:04 PM Central  |   03:04 PM Eastern

 

ADVISORIES

FORECASTS

FORECASTS

OBSERVATIONS

USER TOOLS

ABOUT US